createdAt,value
2023-04-17T00:01:00.751Z,97504.91
2023-04-17T00:03:27.379Z,97494.59
2023-04-17T00:05:54.138Z,97497.22
2023-04-17T00:08:20.697Z,97496.75
2023-04-17T00:10:54.002Z,97500.28
2023-04-17T00:13:26.930Z,97496.34
2023-04-17T00:15:53.406Z,97494.72
2023-04-17T00:18:19.828Z,97485.41
2023-04-17T00:20:46.269Z,97482.44
2023-04-17T00:23:12.732Z,97496.28
2023-04-17T00:25:39.200Z,97484.38
2023-04-17T00:28:05.906Z,97495.78
2023-04-17T00:30:32.422Z,97482.44
2023-04-17T00:32:58.950Z,97479.19
2023-04-17T00:35:25.606Z,97483.44
2023-04-17T00:37:52.088Z,97481.28
2023-04-17T00:40:18.702Z,97473.47
2023-04-17T00:42:45.626Z,97474.53
2023-04-17T00:45:12.066Z,97473.47
2023-04-17T00:47:38.862Z,97467.53
2023-04-17T00:50:05.658Z,97472.03
2023-04-17T00:52:32.430Z,97474.09
2023-04-17T00:55:00.371Z,97467.44
2023-04-17T00:57:27.181Z,97472.38
2023-04-17T00:59:55.981Z,97464.66
2023-04-17T01:02:23.036Z,97462.06
2023-04-17T01:04:49.616Z,97454.38
2023-04-17T01:07:16.539Z,97467.53
2023-04-17T01:09:43.043Z,97461.31
2023-04-17T01:12:23.214Z,97458.47
2023-04-17T01:14:56.814Z,97458.00
2023-04-17T01:17:26.127Z,97444.44
2023-04-17T01:19:52.834Z,97450.91
2023-04-17T01:22:22.244Z,97448.75
2023-04-17T01:24:53.574Z,97451.53
2023-04-17T01:27:22.420Z,97448.56
2023-04-17T01:29:49.022Z,97449.81
2023-04-17T01:32:17.101Z,97438.06
2023-04-17T01:34:43.610Z,97439.84
2023-04-17T01:37:10.111Z,97438.31
2023-04-17T01:39:37.212Z,97437.06
2023-04-17T01:42:03.830Z,97430.19
2023-04-17T01:44:30.467Z,97424.03
2023-04-17T01:46:57.097Z,97428.25
2023-04-17T01:49:23.589Z,97427.09
2023-04-17T01:51:50.189Z,97423.09
2023-04-17T01:54:16.684Z,97416.47
2023-04-17T01:56:43.163Z,97418.66
2023-04-17T01:59:10.160Z,97419.63
2023-04-17T02:01:36.961Z,97424.59
2023-04-17T02:04:03.687Z,97414.44
2023-04-17T02:06:31.980Z,97419.06
2023-04-17T02:08:59.690Z,97416.88
2023-04-17T02:11:26.394Z,97416.88
2023-04-17T02:13:53.454Z,97425.53
2023-04-17T02:16:21.769Z,97420.94
2023-04-17T02:18:49.604Z,97411.06
2023-04-17T02:21:16.466Z,97424.63
2023-04-17T02:23:43.364Z,97406.00
2023-04-17T02:26:09.934Z,97411.06
2023-04-17T02:28:36.454Z,97413.88
2023-04-17T02:31:05.497Z,97412.28
2023-04-17T02:33:31.993Z,97415.41
2023-04-17T02:35:58.804Z,97408.25
2023-04-17T02:38:34.197Z,97416.88
2023-04-17T02:41:00.875Z,97402.72
2023-04-17T02:43:29.969Z,97403.25
2023-04-17T02:45:56.552Z,97397.41
2023-04-17T02:48:24.572Z,97402.16
2023-04-17T02:50:51.093Z,97404.09
2023-04-17T02:53:19.477Z,97397.78
2023-04-17T02:55:47.054Z,97398.81
2023-04-17T02:58:15.121Z,97396.63
2023-04-17T03:00:41.712Z,97384.44
2023-04-17T03:03:13.624Z,97387.06
2023-04-17T03:05:40.413Z,97385.66
2023-04-17T03:08:08.134Z,97379.97
2023-04-17T03:10:42.657Z,97391.09
2023-04-17T03:13:09.165Z,97384.16
2023-04-17T03:15:36.356Z,97378.63
2023-04-17T03:18:03.101Z,97392.38
2023-04-17T03:20:30.086Z,97387.94
2023-04-17T03:22:56.718Z,97390.25
2023-04-17T03:25:23.180Z,97384.56
2023-04-17T03:27:52.864Z,97397.78
2023-04-17T03:30:22.008Z,97394.78
2023-04-17T03:32:50.748Z,97398.06
2023-04-17T03:35:17.242Z,97400.94
2023-04-17T03:37:43.975Z,97399.66
2023-04-17T03:40:12.252Z,97412.06
2023-04-17T03:42:38.784Z,97405.31
2023-04-17T03:45:05.638Z,97400.19
2023-04-17T03:47:33.642Z,97410.38
2023-04-17T03:50:00.343Z,97409.03
2023-04-17T03:52:31.108Z,97402.94
2023-04-17T03:54:58.853Z,97404.41
2023-04-17T03:57:26.324Z,97409.25
2023-04-17T03:59:53.325Z,97407.63
2023-04-17T04:02:20.704Z,97404.44
2023-04-17T04:04:50.466Z,97412.34
2023-04-17T04:07:17.276Z,97408.41
2023-04-17T04:09:44.667Z,97409.53
2023-04-17T04:12:11.394Z,97416.50
2023-04-17T04:14:42.035Z,97423.63
2023-04-17T04:17:09.674Z,97417.81
2023-04-17T04:19:36.983Z,97418.84
2023-04-17T04:22:06.745Z,97422.81
2023-04-17T04:24:40.858Z,97420.72
2023-04-17T04:27:07.606Z,97422.06
2023-04-17T04:29:37.629Z,97429.44
2023-04-17T04:32:09.605Z,97426.25
2023-04-17T04:34:42.020Z,97425.03
2023-04-17T04:37:08.603Z,97432.03
2023-04-17T04:39:39.893Z,97436.63
2023-04-17T04:42:09.954Z,97430.72
2023-04-17T04:45:04.507Z,97430.44
2023-04-17T04:47:32.046Z,97433.78
2023-04-17T04:49:58.624Z,97434.81
2023-04-17T04:52:26.373Z,97435.88
2023-04-17T04:54:56.079Z,97434.38
2023-04-17T04:57:24.005Z,97441.91
2023-04-17T04:59:53.768Z,97452.69
2023-04-17T05:02:28.806Z,97448.22
2023-04-17T05:04:55.494Z,97449.34
2023-04-17T05:07:22.713Z,97450.50
2023-04-17T05:09:50.098Z,97451.59
2023-04-17T05:12:16.897Z,97452.44
2023-04-17T05:14:44.602Z,97459.41
2023-04-17T05:17:11.134Z,97455.94
2023-04-17T05:19:38.520Z,97458.06
2023-04-17T05:22:08.474Z,97461.66
2023-04-17T05:24:42.698Z,97460.81
2023-04-17T05:27:09.534Z,97459.75
2023-04-17T05:29:37.334Z,97452.19
2023-04-17T05:32:04.113Z,97461.09
2023-04-17T05:34:52.421Z,97460.78
2023-04-17T05:37:23.056Z,97475.47
2023-04-17T05:39:49.601Z,97470.91
2023-04-17T05:42:16.105Z,97472.56
2023-04-17T05:44:42.704Z,97463.88
2023-04-17T05:47:09.191Z,97475.91
2023-04-17T05:49:36.713Z,97472.66
2023-04-17T05:52:03.515Z,97477.00
2023-04-17T05:54:30.393Z,97473.22
2023-04-17T05:56:57.893Z,97479.75
2023-04-17T05:59:25.277Z,97471.63
2023-04-17T06:01:52.649Z,97477.97
2023-04-17T06:04:22.262Z,97480.38
2023-04-17T06:06:50.094Z,97476.75
2023-04-17T06:09:16.765Z,97474.97
2023-04-17T06:11:43.270Z,97482.41
2023-04-17T06:14:09.746Z,97473.97
2023-04-17T06:16:37.851Z,97479.72
2023-04-17T06:19:04.444Z,97475.81
2023-04-17T06:21:32.016Z,97489.56
2023-04-17T06:24:00.363Z,97482.28
2023-04-17T06:26:26.817Z,97491.44
2023-04-17T06:28:53.393Z,97491.75
2023-04-17T06:31:19.989Z,97492.28
2023-04-17T06:33:49.788Z,97490.44
2023-04-17T06:36:17.840Z,97489.91
2023-04-17T06:38:49.041Z,97499.22
2023-04-17T06:41:17.721Z,97496.88
2023-04-17T06:43:44.460Z,97502.25
2023-04-17T06:46:13.640Z,97490.44
2023-04-17T06:48:40.155Z,97497.19
2023-04-17T06:51:06.620Z,97509.00
2023-04-17T06:53:33.067Z,97495.50
2023-04-17T06:55:59.764Z,97488.06
2023-04-17T06:58:26.317Z,97502.88
2023-04-17T07:00:52.751Z,97499.88
2023-04-17T07:03:19.544Z,97506.28
2023-04-17T07:05:46.498Z,97503.94
2023-04-17T07:08:13.490Z,97493.94
2023-04-17T07:10:39.965Z,97500.28
2023-04-17T07:13:06.963Z,97494.63
2023-04-17T07:15:33.527Z,97496.16
2023-04-17T07:18:00.244Z,97489.84
2023-04-17T07:20:26.878Z,97488.94
2023-04-17T07:22:53.378Z,97490.00
2023-04-17T07:25:20.050Z,97490.28
2023-04-17T07:27:46.602Z,97498.69
2023-04-17T07:30:13.237Z,97496.19
2023-04-17T07:32:39.733Z,97486.06
2023-04-17T07:35:06.468Z,97488.66
2023-04-17T07:37:33.972Z,97495.25
2023-04-17T07:40:00.420Z,97496.06
2023-04-17T07:42:28.431Z,97492.00
2023-04-17T07:44:54.848Z,97499.84
2023-04-17T07:47:21.600Z,97502.63
2023-04-17T07:49:49.166Z,97498.66
2023-04-17T07:52:17.658Z,97503.13
2023-04-17T07:54:44.582Z,97508.22
2023-04-17T07:57:11.188Z,97506.94
2023-04-17T07:59:37.712Z,97513.03
2023-04-17T08:02:04.305Z,97515.69
2023-04-17T08:04:31.221Z,97517.66
2023-04-17T08:06:57.808Z,97514.66
2023-04-17T08:09:24.319Z,97518.97
2023-04-17T08:11:57.469Z,97527.47
2023-04-17T08:14:24.946Z,97526.22
2023-04-17T08:16:51.734Z,97516.84
2023-04-17T08:19:18.309Z,97523.84
2023-04-17T08:21:47.050Z,97514.13
2023-04-17T08:24:13.486Z,97525.78
2023-04-17T08:26:40.013Z,97522.09
2023-04-17T08:29:07.347Z,97525.31
2023-04-17T08:31:36.628Z,97522.19
2023-04-17T08:34:13.622Z,97523.97
2023-04-17T08:36:41.384Z,97517.22
2023-04-17T08:39:09.940Z,97524.66
2023-04-17T08:41:43.025Z,97530.72
2023-04-17T08:44:09.512Z,97530.72
2023-04-17T08:46:36.370Z,97525.59
2023-04-17T08:49:03.341Z,97530.78
2023-04-17T08:51:29.904Z,97531.94
2023-04-17T08:53:56.335Z,97520.34
2023-04-17T08:56:22.798Z,97526.06
2023-04-17T08:58:49.312Z,97525.50
2023-04-17T09:01:16.589Z,97520.69
2023-04-17T09:03:44.287Z,97525.13
2023-04-17T09:06:11.348Z,97519.63
2023-04-17T09:08:38.194Z,97517.56
2023-04-17T09:11:04.873Z,97520.69
2023-04-17T09:13:40.205Z,97527.78
2023-04-17T09:16:07.837Z,97527.19
2023-04-17T09:18:35.028Z,97524.13
2023-04-17T09:21:02.342Z,97521.81
2023-04-17T09:23:29.796Z,97521.53
2023-04-17T09:26:07.332Z,97516.16
2023-04-17T09:28:39.252Z,97524.41
2023-04-17T09:31:18.428Z,97524.91
2023-04-17T09:33:58.391Z,97512.47
2023-04-17T09:36:25.085Z,97507.59
2023-04-17T09:38:51.726Z,97503.97
2023-04-17T09:41:28.960Z,97509.53
2023-04-17T09:43:56.537Z,97512.97
2023-04-17T09:46:40.555Z,97506.84
2023-04-17T09:49:10.894Z,97500.78
2023-04-17T09:51:37.569Z,97510.88
2023-04-17T09:54:05.581Z,97510.88
2023-04-17T09:56:33.802Z,97503.50
2023-04-17T09:59:02.824Z,97499.94
2023-04-17T10:01:30.460Z,97506.25
2023-04-17T10:03:58.153Z,97502.03
2023-04-17T10:06:26.715Z,97498.97
2023-04-17T10:08:53.750Z,97496.03
2023-04-17T10:11:22.012Z,97488.94
2023-04-17T10:13:52.945Z,97491.31
2023-04-17T10:16:19.540Z,97481.19
2023-04-17T10:18:46.154Z,97480.81
2023-04-17T10:21:20.089Z,97486.66
2023-04-17T10:23:46.643Z,97485.44
2023-04-17T10:26:33.397Z,97483.16
2023-04-17T10:28:59.894Z,97481.00
2023-04-17T10:31:45.296Z,97483.16
2023-04-17T10:34:31.722Z,97473.09
2023-04-17T10:36:58.300Z,97477.47
2023-04-17T10:39:24.712Z,97476.00
2023-04-17T10:42:03.318Z,97472.03
2023-04-17T10:44:33.636Z,97471.41
2023-04-17T10:47:05.980Z,97463.84
2023-04-17T10:49:50.955Z,97468.03
2023-04-17T10:52:32.855Z,97464.66
2023-04-17T10:55:08.259Z,97459.63
2023-04-17T10:57:53.490Z,97458.16
2023-04-17T11:00:21.513Z,97455.41
2023-04-17T11:02:50.339Z,97452.03
2023-04-17T11:05:17.498Z,97451.13
2023-04-17T11:07:44.603Z,97445.66
2023-04-17T11:10:12.300Z,97455.84
2023-04-17T11:12:39.311Z,97449.66
2023-04-17T11:15:06.350Z,97438.44
2023-04-17T11:17:33.030Z,97435.69
2023-04-17T11:19:59.997Z,97445.78
2023-04-17T11:22:27.919Z,97442.63
2023-04-17T11:24:54.366Z,97439.69
2023-04-17T11:27:22.240Z,97435.16
2023-04-17T11:29:48.712Z,97432.91
2023-04-17T11:32:15.954Z,97437.38
2023-04-17T11:34:42.534Z,97440.72
2023-04-17T11:37:13.088Z,97437.34
2023-04-17T11:39:41.827Z,97439.25
2023-04-17T11:42:08.379Z,97425.63
2023-04-17T11:44:34.831Z,97434.03
2023-04-17T11:47:01.974Z,97442.00
2023-04-17T11:49:29.449Z,97434.03
2023-04-17T11:51:57.704Z,97428.13
2023-04-17T11:54:27.821Z,97435.22
2023-04-17T11:57:01.657Z,97436.03
2023-04-17T11:59:31.686Z,97432.75
2023-04-17T12:02:00.726Z,97437.59
2023-04-17T12:04:29.194Z,97437.59
2023-04-17T12:06:57.916Z,97431.03
2023-04-17T12:09:31.181Z,97434.84
2023-04-17T12:12:01.730Z,97434.03
2023-04-17T12:14:28.244Z,97442.41
2023-04-17T12:16:54.716Z,97432.53
2023-04-17T12:19:21.333Z,97439.44
2023-04-17T12:21:48.040Z,97431.03
2023-04-17T12:24:14.768Z,97433.53
2023-04-17T12:26:47.566Z,97434.03
2023-04-17T12:29:14.838Z,97430.25
2023-04-17T12:31:41.626Z,97432.97
2023-04-17T12:34:08.135Z,97430.66
2023-04-17T12:36:34.887Z,97423.28
2023-04-17T12:39:01.598Z,97427.72
2023-04-17T12:41:28.229Z,97432.34
2023-04-17T12:43:54.970Z,97421.81
2023-04-17T12:46:21.698Z,97426.25
2023-04-17T12:48:48.289Z,97421.38
2023-04-17T12:51:14.920Z,97419.25
2023-04-17T12:53:41.635Z,97417.16
2023-04-17T12:56:08.202Z,97417.16
2023-04-17T12:58:34.669Z,97420.72
2023-04-17T13:01:01.193Z,97418.84
2023-04-17T13:03:27.889Z,97406.97
2023-04-17T13:05:54.573Z,97408.31
2023-04-17T13:08:21.087Z,97411.34
2023-04-17T13:10:47.590Z,97408.81
2023-04-17T13:13:14.045Z,97397.03
2023-04-17T13:15:40.715Z,97401.22
2023-04-17T13:18:08.400Z,97400.38
2023-04-17T13:20:35.235Z,97410.03
2023-04-17T13:23:01.798Z,97400.34
2023-04-17T13:25:29.314Z,97410.41
2023-04-17T13:27:55.795Z,97411.28
2023-04-17T13:30:22.892Z,97407.47
2023-04-17T13:32:49.411Z,97401.53
2023-04-17T13:35:15.993Z,97412.09
2023-04-17T13:37:42.897Z,97403.94
2023-04-17T13:40:10.837Z,97407.66
2023-04-17T13:42:37.422Z,97404.16
2023-04-17T13:45:04.520Z,97399.81
2023-04-17T13:47:31.062Z,97404.94
2023-04-17T13:49:57.549Z,97398.78
2023-04-17T13:52:24.063Z,97402.72
2023-04-17T13:54:50.586Z,97400.19
2023-04-17T13:57:19.965Z,97399.94
2023-04-17T13:59:46.569Z,97398.84
2023-04-17T14:02:13.188Z,97398.56
2023-04-17T14:04:39.810Z,97399.03
2023-04-17T14:07:06.482Z,97411.50
2023-04-17T14:09:32.958Z,97397.69
2023-04-17T14:12:02.393Z,97399.59
2023-04-17T14:14:28.828Z,97401.34
2023-04-17T14:16:55.274Z,97401.84
2023-04-17T14:19:21.857Z,97404.81
2023-04-17T14:21:48.341Z,97396.09
2023-04-17T14:24:14.834Z,97388.88
2023-04-17T14:26:42.062Z,97393.53
2023-04-17T14:29:10.623Z,97390.94
2023-04-17T14:31:37.517Z,97388.03
2023-04-17T14:34:04.020Z,97393.47
2023-04-17T14:36:31.110Z,97406.31
2023-04-17T14:38:58.536Z,97406.38
2023-04-17T14:41:29.734Z,97395.41
2023-04-17T14:43:56.531Z,97405.91
2023-04-17T14:46:23.233Z,97402.41
2023-04-17T14:48:55.515Z,97409.97
2023-04-17T14:51:25.252Z,97404.59
2023-04-17T14:53:52.983Z,97403.72
2023-04-17T14:56:21.345Z,97394.69
2023-04-17T14:58:47.993Z,97399.94
2023-04-17T15:01:14.466Z,97409.22
2023-04-17T15:03:41.693Z,97396.16
2023-04-17T15:06:09.643Z,97396.75
2023-04-17T15:08:36.096Z,97392.47
2023-04-17T15:11:02.552Z,97387.34
2023-04-17T15:13:29.057Z,97384.81
2023-04-17T15:15:55.569Z,97387.81
2023-04-17T15:18:22.087Z,97385.81
2023-04-17T15:20:48.555Z,97384.00
2023-04-17T15:23:17.430Z,97391.88
2023-04-17T15:25:43.893Z,97386.94
2023-04-17T15:28:10.499Z,97376.44
2023-04-17T15:30:36.945Z,97378.28
2023-04-17T15:33:03.581Z,97381.47
2023-04-17T15:35:30.153Z,97376.19
2023-04-17T15:37:56.952Z,97380.78
2023-04-17T15:40:23.531Z,97382.97
2023-04-17T15:42:50.005Z,97374.41
2023-04-17T15:45:16.448Z,97375.94
2023-04-17T15:47:42.913Z,97378.50
2023-04-17T15:50:09.785Z,97377.25
2023-04-17T15:52:36.268Z,97377.78
2023-04-17T15:55:02.774Z,97375.66
2023-04-17T15:57:29.226Z,97377.78
2023-04-17T15:59:55.701Z,97380.91
2023-04-17T16:02:22.563Z,97373.56
2023-04-17T16:04:49.109Z,97373.56
2023-04-17T16:07:16.475Z,97378.22
2023-04-17T16:09:44.641Z,97365.13
2023-04-17T16:12:11.233Z,97376.69
2023-04-17T16:14:38.302Z,97373.31
2023-04-17T16:17:04.978Z,97375.63
2023-04-17T16:19:32.111Z,97376.47
2023-04-17T16:21:58.656Z,97374.56
2023-04-17T16:24:25.593Z,97375.16
2023-04-17T16:26:57.179Z,97381.88
2023-04-17T16:29:24.496Z,97369.69
2023-04-17T16:31:51.625Z,97375.09
2023-04-17T16:34:18.195Z,97379.09
2023-04-17T16:36:45.956Z,97384.13
2023-04-17T16:39:12.867Z,97387.44
2023-04-17T16:41:39.589Z,97385.75
2023-04-17T16:44:06.133Z,97386.88
2023-04-17T16:46:45.607Z,97392.22
2023-04-17T16:49:19.182Z,97391.94
2023-04-17T16:51:45.673Z,97399.50
2023-04-17T16:54:12.384Z,97400.19
2023-04-17T16:56:39.043Z,97396.22
2023-04-17T16:59:05.702Z,97400.72
2023-04-17T17:01:32.221Z,97407.69
2023-04-17T17:03:58.905Z,97402.41
2023-04-17T17:06:25.380Z,97404.09
2023-04-17T17:08:54.588Z,97405.22
2023-04-17T17:11:21.947Z,97409.44
2023-04-17T17:13:49.343Z,97412.88
2023-04-17T17:16:16.478Z,97406.59
2023-04-17T17:18:43.170Z,97411.91
2023-04-17T17:21:09.945Z,97411.91
2023-04-17T17:23:37.869Z,97416.59
2023-04-17T17:26:04.620Z,97413.25
2023-04-17T17:28:31.381Z,97414.34
2023-04-17T17:31:05.369Z,97416.34
2023-04-17T17:33:32.136Z,97412.56
2023-04-17T17:35:59.066Z,97415.72
2023-04-17T17:38:28.449Z,97420.13
2023-04-17T17:40:56.137Z,97416.16
2023-04-17T17:43:22.697Z,97418.53
2023-04-17T17:45:49.684Z,97417.97
2023-04-17T17:48:16.997Z,97421.06
2023-04-17T17:50:43.733Z,97430.63
2023-04-17T17:53:10.600Z,97427.63
2023-04-17T17:55:37.977Z,97429.59
2023-04-17T17:58:08.523Z,97421.97
2023-04-17T18:00:35.466Z,97434.63
2023-04-17T18:03:02.298Z,97445.41
2023-04-17T18:05:28.952Z,97443.97
2023-04-17T18:07:55.507Z,97444.69
2023-04-17T18:10:22.069Z,97444.22
2023-04-17T18:12:49.204Z,97443.00
2023-04-17T18:15:15.693Z,97441.44
2023-04-17T18:17:42.206Z,97440.06
2023-04-17T18:20:09.100Z,97442.22
2023-04-17T18:22:36.659Z,97448.47
2023-04-17T18:25:03.184Z,97445.59
2023-04-17T18:27:30.872Z,97444.63
2023-04-17T18:29:58.016Z,97451.34
2023-04-17T18:32:24.538Z,97450.38
2023-04-17T18:34:51.282Z,97458.31
2023-04-17T18:37:18.362Z,97459.00
2023-04-17T18:39:44.889Z,97465.50
2023-04-17T18:42:11.438Z,97467.19
2023-04-17T18:44:37.935Z,97471.63
2023-04-17T18:47:04.575Z,97472.78
2023-04-17T18:49:31.101Z,97474.16
2023-04-17T18:51:57.631Z,97483.66
2023-04-17T18:54:24.270Z,97475.19
2023-04-17T18:56:50.902Z,97483.81
2023-04-17T18:59:19.937Z,97482.44
2023-04-17T19:01:46.428Z,97482.59
2023-04-17T19:04:13.325Z,97493.09
2023-04-17T19:06:40.183Z,97492.09
2023-04-17T19:09:06.744Z,97497.34
2023-04-17T19:11:33.540Z,97502.91
2023-04-17T19:14:00.022Z,97501.19
2023-04-17T19:16:26.649Z,97505.44
2023-04-17T19:18:53.129Z,97501.38
2023-04-17T19:21:19.622Z,97505.09
2023-04-17T19:23:47.467Z,97500.53
2023-04-17T19:26:15.756Z,97507.81
2023-04-17T19:28:42.287Z,97497.50
2023-04-17T19:31:08.858Z,97497.50
2023-04-17T19:33:35.536Z,97502.59
2023-04-17T19:36:04.948Z,97500.91
2023-04-17T19:38:31.776Z,97494.81
2023-04-17T19:41:17.838Z,97503.25
2023-04-17T19:43:44.899Z,97497.53
2023-04-17T19:46:13.380Z,97494.00
2023-04-17T19:48:40.344Z,97493.81
2023-04-17T19:51:06.962Z,97492.47
2023-04-17T19:53:37.904Z,97487.75
2023-04-17T19:56:07.627Z,97489.06
2023-04-17T19:58:35.182Z,97484.84
2023-04-17T20:01:01.660Z,97493.44
2023-04-17T20:03:29.505Z,97495.13
2023-04-17T20:05:57.350Z,97479.56
2023-04-17T20:08:24.224Z,97478.25
2023-04-17T20:10:50.776Z,97475.19
2023-04-17T20:13:17.322Z,97469.09
2023-04-17T20:15:43.808Z,97490.75
2023-04-17T20:18:11.686Z,97488.41
2023-04-17T20:20:39.090Z,97494.13
2023-04-17T20:23:05.809Z,97483.69
2023-04-17T20:25:32.324Z,97489.25
2023-04-17T20:27:58.912Z,97479.97
2023-04-17T20:30:25.481Z,97479.97
2023-04-17T20:32:52.152Z,97480.66
2023-04-17T20:35:23.818Z,97480.31
2023-04-17T20:37:51.580Z,97476.06
2023-04-17T20:40:18.711Z,97487.06
2023-04-17T20:42:45.477Z,97487.03
2023-04-17T20:45:12.274Z,97488.03
2023-04-17T20:47:49.327Z,97483.16
2023-04-17T20:50:22.327Z,97484.34
2023-04-17T20:52:48.841Z,97481.63
2023-04-17T20:55:18.213Z,97479.44
2023-04-17T20:57:44.987Z,97479.59
2023-04-17T21:00:12.100Z,97485.16
2023-04-17T21:02:38.807Z,97484.31
2023-04-17T21:05:06.511Z,97480.59
2023-04-17T21:07:33.060Z,97485.13
2023-04-17T21:09:59.568Z,97482.22
2023-04-17T21:12:26.097Z,97480.38
2023-04-17T21:14:52.616Z,97481.88
2023-04-17T21:17:19.199Z,97477.44
2023-04-17T21:19:46.114Z,97481.00
2023-04-17T21:22:13.054Z,97481.00
2023-04-17T21:24:39.737Z,97474.06
2023-04-17T21:27:06.224Z,97472.78
2023-04-17T21:29:32.675Z,97476.06
2023-04-17T21:31:59.500Z,97472.84
2023-04-17T21:34:26.256Z,97469.09
2023-04-17T21:36:53.440Z,97464.28
2023-04-17T21:39:20.318Z,97466.94
2023-04-17T21:41:46.813Z,97471.31
2023-04-17T21:44:13.470Z,97472.53
2023-04-17T21:46:40.143Z,97460.41
2023-04-17T21:49:06.750Z,97461.25
2023-04-17T21:51:33.268Z,97465.34
2023-04-17T21:53:59.728Z,97472.44
2023-04-17T21:56:26.284Z,97466.03
2023-04-17T21:58:52.830Z,97473.78
2023-04-17T22:01:19.420Z,97473.78
2023-04-17T22:03:45.921Z,97468.06
2023-04-17T22:06:12.419Z,97465.34
2023-04-17T22:08:39.248Z,97465.75
2023-04-17T22:11:05.866Z,97464.19
2023-04-17T22:13:32.301Z,97463.63
2023-04-17T22:15:58.731Z,97460.97
2023-04-17T22:18:26.146Z,97472.09
2023-04-17T22:20:52.611Z,97473.16
2023-04-17T22:23:19.258Z,97462.97
2023-04-17T22:25:45.718Z,97474.88
2023-04-17T22:28:12.149Z,97477.72
2023-04-17T22:30:38.746Z,97469.81
2023-04-17T22:33:05.354Z,97468.63
2023-04-17T22:35:31.819Z,97466.66
2023-04-17T22:37:58.318Z,97472.09
2023-04-17T22:40:24.827Z,97470.72
2023-04-17T22:42:51.286Z,97462.94
2023-04-17T22:45:17.836Z,97466.53
2023-04-17T22:47:44.299Z,97471.63
2023-04-17T22:50:10.817Z,97453.47
2023-04-17T22:52:37.288Z,97456.19
2023-04-17T22:55:04.200Z,97463.94
2023-04-17T22:57:30.680Z,97456.88
2023-04-17T22:59:57.205Z,97466.94
2023-04-17T23:02:23.791Z,97465.94
2023-04-17T23:04:50.321Z,97469.00
2023-04-17T23:07:16.792Z,97459.63
2023-04-17T23:09:43.268Z,97464.28
2023-04-17T23:12:09.739Z,97465.63
2023-04-17T23:14:36.248Z,97465.97
2023-04-17T23:17:02.728Z,97461.53
2023-04-17T23:19:29.242Z,97458.38
2023-04-17T23:21:55.931Z,97454.47
2023-04-17T23:24:22.394Z,97460.06
2023-04-17T23:26:48.885Z,97457.53
2023-04-17T23:29:15.315Z,97452.81
2023-04-17T23:31:42.837Z,97460.88
2023-04-17T23:34:09.403Z,97460.25
2023-04-17T23:36:35.867Z,97461.25
2023-04-17T23:39:02.316Z,97455.19
2023-04-17T23:41:29.612Z,97447.38
2023-04-17T23:43:56.227Z,97446.00
2023-04-17T23:46:23.217Z,97442.00
2023-04-17T23:48:49.882Z,97439.56
2023-04-17T23:51:16.400Z,97441.00
2023-04-17T23:53:42.972Z,97440.75
2023-04-17T23:56:09.473Z,97434.06
2023-04-17T23:58:35.975Z,97435.59
